Time;durP1;ratioP1;P1;durP2;ratioP2;P2;SDS_P1;SDS_P2;PMS_P1;PMS_P2;Temp;Humidity;BMP_temperature;BMP_pressure;BME280_temperature;BME280_humidity;BME280_pressure;Samples;Min_cycle;Max_cycle;Signal;HPM_P1;HPM_P2
2022/05/18 00:00:40;;;;;;;4.40;2.30;;;;;;;9.33;54.13;97296.80;108006;1267;80605;-82
2022/05/18 00:03:12;;;;;;;5.70;2.40;;;;;;;9.11;54.72;97295.45;107919;1268;111995;-82
2022/05/18 00:05:44;;;;;;;6.10;2.60;;;;;;;9.02;54.77;97291.36;108077;1268;97918;-82
2022/05/18 00:08:16;;;;;;;5.20;2.40;;;;;;;9.00;55.06;97292.55;107887;1268;104597;-82
2022/05/18 00:10:49;;;;;;;4.00;2.40;;;;;;;8.93;55.33;97290.12;107878;1268;145372;-82
2022/05/18 00:13:20;;;;;;;4.10;2.30;;;;;;;8.73;55.58;97289.59;108114;1268;79758;-82
2022/05/18 00:15:51;;;;;;;5.90;2.10;;;;;;;8.55;56.04;97294.91;108000;1268;80188;-82
2022/05/18 00:18:22;;;;;;;5.50;2.30;;;;;;;8.57;56.13;97291.71;108115;1268;36172;-82
2022/05/18 00:20:53;;;;;;;6.90;2.20;;;;;;;8.54;56.26;97295.84;108126;1265;31348;-82
2022/05/18 00:23:27;;;;;;;4.50;1.90;;;;;;;8.35;56.42;97305.03;107864;1268;95675;-82
2022/05/18 00:25:58;;;;;;;6.60;2.40;;;;;;;8.31;57.02;97304.61;108142;1268;31813;-82
2022/05/18 00:28:29;;;;;;;5.10;2.20;;;;;;;8.31;56.94;97306.84;108109;1268;96677;-82
2022/05/18 00:31:01;;;;;;;4.80;2.00;;;;;;;8.19;57.09;97309.42;108123;1268;100537;-82
2022/05/18 00:33:32;;;;;;;2.90;2.10;;;;;;;8.12;57.37;97311.91;108086;1266;134947;-82
2022/05/18 00:36:03;;;;;;;4.80;2.30;;;;;;;8.11;57.54;97315.70;108129;1265;57385;-83
2022/05/18 00:38:34;;;;;;;5.40;2.40;;;;;;;8.04;57.68;97323.96;108054;1265;76410;-81
2022/05/18 00:41:05;;;;;;;3.70;2.00;;;;;;;8.06;57.96;97323.73;108125;1265;38244;-82
2022/05/18 00:43:42;;;;;;;4.40;2.50;;;;;;;7.97;57.72;97335.33;108043;1268;87643;-82
2022/05/18 00:46:15;;;;;;;4.30;2.00;;;;;;;7.81;57.95;97341.16;107985;1265;126435;-82
2022/05/18 00:48:46;;;;;;;8.70;2.90;;;;;;;7.74;58.52;97340.10;108136;1265;61135;-82
2022/05/18 00:51:22;;;;;;;3.00;1.90;;;;;;;7.75;58.52;97340.98;107995;1266;91756;-82
2022/05/18 00:53:59;;;;;;;5.00;2.30;;;;;;;7.68;58.45;97349.00;108100;1265;37061;-82
2022/05/18 00:56:36;;;;;;;4.80;2.10;;;;;;;7.56;58.57;97350.23;108153;1265;48037;-82
2022/05/18 00:59:10;;;;;;;5.60;2.30;;;;;;;7.46;59.03;97347.14;107945;1265;97253;-82
2022/05/18 01:01:42;;;;;;;3.50;2.30;;;;;;;7.44;58.81;97352.94;107959;1265;128633;-82
2022/05/18 01:04:16;;;;;;;5.60;2.70;;;;;;;7.35;59.18;97357.83;108116;1265;39488;-82
2022/05/18 01:06:52;;;;;;;7.10;2.30;;;;;;;7.36;59.55;97358.84;106473;1265;2068512;-82
2022/05/18 01:09:28;;;;;;;5.00;2.00;;;;;;;7.33;59.49;97359.38;108019;1265;89506;-82
2022/05/18 01:11:59;;;;;;;6.20;2.30;;;;;;;7.30;59.31;97363.73;108042;1265;100833;-82
2022/05/18 01:14:34;;;;;;;3.60;2.20;;;;;;;7.31;59.34;97370.21;108111;1265;78956;-82
2022/05/18 01:17:06;;;;;;;3.60;2.20;;;;;;;7.31;59.10;97371.11;107976;1265;109068;-82
2022/05/18 01:19:41;;;;;;;5.00;2.30;;;;;;;7.17;59.37;97378.30;108113;1265;63101;-81
2022/05/18 01:22:23;;;;;;;4.90;2.40;;;;;;;7.00;59.73;97386.48;108054;1265;76903;-82
2022/05/18 01:25:03;;;;;;;3.90;2.20;;;;;;;6.92;60.22;97388.13;107858;1267;101133;-82
2022/05/18 01:27:34;;;;;;;5.40;2.30;;;;;;;6.90;60.17;97394.05;107890;1267;78497;-81
2022/05/18 01:30:07;;;;;;;6.00;2.00;;;;;;;6.88;59.82;97397.00;107795;1267;123984;-81
2022/05/18 01:32:44;;;;;;;3.30;1.90;;;;;;;6.91;59.39;97401.05;107923;1267;92212;-82
2022/05/18 01:35:18;;;;;;;5.70;1.90;;;;;;;6.94;58.72;97400.73;107998;1268;31238;-82
2022/05/18 01:37:49;;;;;;;4.60;1.80;;;;;;;6.95;58.33;97405.94;107901;1267;68714;-82
2022/05/18 01:40:34;;;;;;;4.80;2.20;;;;;;;6.95;58.20;97413.39;107990;1265;91001;-83
2022/05/18 01:43:13;;;;;;;6.50;2.00;;;;;;;6.77;58.78;97411.77;108065;1265;44799;-82
2022/05/18 01:45:45;;;;;;;4.90;2.10;;;;;;;6.62;59.36;97419.86;108055;1266;58614;-82
2022/05/18 01:48:17;;;;;;;4.60;2.30;;;;;;;6.30;60.50;97421.29;107916;1265;105444;-82
2022/05/18 01:50:50;;;;;;;6.60;2.60;;;;;;;6.03;60.86;97419.01;108045;1265;91180;-82
2022/05/18 01:53:21;;;;;;;6.70;2.80;;;;;;;5.93;61.24;97425.02;108016;1265;71290;-82
2022/05/18 01:55:52;;;;;;;5.80;1.90;;;;;;;5.92;61.43;97427.25;108082;1265;59125;-82
2022/05/18 01:58:23;;;;;;;3.20;2.00;;;;;;;5.98;61.61;97431.40;108055;1265;80082;-83
2022/05/18 02:00:55;;;;;;;3.60;2.00;;;;;;;5.95;61.22;97436.47;108013;1265;103094;-82
2022/05/18 02:03:26;;;;;;;5.20;2.30;;;;;;;5.92;61.42;97435.95;107991;1265;96608;-82
2022/05/18 02:05:57;;;;;;;5.00;2.60;;;;;;;5.81;61.43;97441.11;108007;1265;77310;-82
2022/05/18 02:08:28;;;;;;;4.50;2.60;;;;;;;5.79;61.79;97441.73;108021;1265;66671;-82
2022/05/18 02:10:59;;;;;;;4.00;2.50;;;;;;;5.84;61.75;97445.90;108015;1264;71367;-82
2022/05/18 02:13:30;;;;;;;9.60;2.30;;;;;;;5.95;62.08;97451.66;108107;1265;76887;-82
2022/05/18 02:16:04;;;;;;;5.60;2.40;;;;;;;5.93;61.65;97454.01;108178;1265;33857;-82
2022/05/18 02:18:35;;;;;;;5.40;2.60;;;;;;;5.87;61.97;97454.58;108076;1265;37199;-82
2022/05/18 02:21:08;;;;;;;4.10;2.40;;;;;;;5.81;61.87;97456.79;108041;1265;89016;-81
2022/05/18 02:23:40;;;;;;;5.00;2.40;;;;;;;5.66;61.94;97460.62;107934;1267;79848;-81
2022/05/18 02:26:14;;;;;;;6.50;2.20;;;;;;;5.54;62.25;97460.32;108071;1268;91155;-82
2022/05/18 02:28:46;;;;;;;6.20;2.10;;;;;;;5.44;62.53;97464.65;108099;1265;68381;-82
2022/05/18 02:31:17;;;;;;;3.30;2.00;;;;;;;5.36;62.53;97465.86;108037;1265;91200;-82
2022/05/18 02:33:48;;;;;;;4.70;1.60;;;;;;;5.29;62.34;97468.20;108028;1265;66681;-82
2022/05/18 02:36:20;;;;;;;4.30;1.70;;;;;;;5.24;62.07;97475.50;108033;1266;47874;-82
2022/05/18 02:38:52;;;;;;;5.60;1.70;;;;;;;5.20;62.07;97477.04;108029;1265;89452;-82
2022/05/18 02:41:23;;;;;;;4.00;1.90;;;;;;;5.23;61.94;97478.30;108093;1265;39878;-82
2022/05/18 02:43:54;;;;;;;5.80;2.00;;;;;;;5.19;61.85;97477.24;108087;1265;53583;-82
2022/05/18 02:46:25;;;;;;;3.70;1.80;;;;;;;5.16;61.87;97478.98;107957;1268;113939;-82
2022/05/18 02:48:57;;;;;;;5.50;2.40;;;;;;;5.07;62.20;97486.39;108014;1268;94422;-82
2022/05/18 02:51:29;;;;;;;4.60;2.20;;;;;;;4.94;62.35;97492.98;107947;1268;152820;-82
2022/05/18 02:54:01;;;;;;;2.80;1.70;;;;;;;4.91;62.59;97492.48;108118;1268;85505;-82
2022/05/18 02:56:33;;;;;;;5.40;1.70;;;;;;;4.70;62.34;97502.61;108128;1268;73307;-82
2022/05/18 02:59:03;;;;;;;5.70;1.90;;;;;;;4.47;62.72;97510.77;107993;1268;72962;-78
2022/05/18 03:01:34;;;;;;;2.20;1.50;;;;;;;4.41;62.97;97517.61;107866;1268;48874;-81
2022/05/18 03:04:05;;;;;;;5.80;1.70;;;;;;;4.36;62.98;97519.52;108050;1268;31832;-81
2022/05/18 03:06:36;;;;;;;5.30;2.30;;;;;;;4.26;63.26;97522.19;108025;1268;67149;-81
2022/05/18 03:09:08;;;;;;;3.70;1.70;;;;;;;4.31;63.45;97523.28;108067;1268;45025;-81
2022/05/18 03:11:40;;;;;;;3.80;1.80;;;;;;;4.48;63.67;97529.27;108001;1268;79099;-82
2022/05/18 03:14:11;;;;;;;3.80;1.90;;;;;;;4.63;63.36;97528.46;108008;1268;84475;-82
2022/05/18 03:16:44;;;;;;;3.40;1.90;;;;;;;4.63;63.13;97534.23;108024;1268;88177;-82
2022/05/18 03:19:15;;;;;;;2.60;1.40;;;;;;;4.48;63.20;97542.27;107956;1268;35222;-82
2022/05/18 03:24:35;;;;;;;5.40;1.70;;;;;;;4.32;63.75;97556.33;107853;1271;36317;-80
2022/05/18 03:27:07;;;;;;;2.80;1.90;;;;;;;4.41;63.94;97561.63;107845;1268;51761;-81
2022/05/18 03:29:38;;;;;;;3.30;1.80;;;;;;;4.64;64.01;97565.11;107712;1269;120285;-82
2022/05/18 03:32:10;;;;;;;3.70;2.20;;;;;;;4.74;63.63;97558.48;107710;1268;96260;-82
2022/05/18 03:34:41;;;;;;;3.90;2.20;;;;;;;4.79;63.57;97558.98;107934;1268;78650;-82
2022/05/18 03:37:12;;;;;;;6.10;2.00;;;;;;;4.84;63.49;97561.27;107849;1268;80732;-82
2022/05/18 03:39:43;;;;;;;3.10;1.50;;;;;;;4.92;63.56;97557.79;108019;1268;84608;-82
2022/05/18 03:42:14;;;;;;;3.40;1.80;;;;;;;5.03;63.50;97558.32;108009;1268;68943;-81
2022/05/18 03:44:44;;;;;;;5.90;2.00;;;;;;;5.07;63.48;97559.33;108118;1267;35424;-82
2022/05/18 03:47:15;;;;;;;4.30;2.30;;;;;;;5.24;63.75;97567.82;108009;1268;54030;-82
2022/05/18 03:49:44;;;;;;;;;;;;;;;5.44;63.59;97571.19;108060;1268;66228;-82
2022/05/18 03:52:15;;;;;;;3.40;2.10;;;;;;;5.60;63.70;97574.94;108150;1268;35582;-82
2022/05/18 03:54:47;;;;;;;4.70;2.30;;;;;;;5.71;63.67;97577.71;108046;1268;66672;-82
2022/05/18 03:57:19;;;;;;;6.30;2.20;;;;;;;5.76;63.58;97577.64;108071;1268;34493;-82
2022/05/18 03:59:49;;;;;;;3.10;2.00;;;;;;;5.70;63.74;97584.85;108047;1268;64233;-82
2022/05/18 04:02:22;;;;;;;2.40;1.80;;;;;;;5.80;63.86;97586.59;108120;1268;45274;-82
2022/05/18 04:04:53;;;;;;;4.50;2.20;;;;;;;5.89;63.47;97590.82;108103;1268;78098;-82
2022/05/18 04:07:23;;;;;;;5.00;2.70;;;;;;;5.90;63.17;97586.36;108102;1268;43876;-82
2022/05/18 04:09:54;;;;;;;6.20;2.40;;;;;;;5.95;63.21;97591.58;108059;1268;33547;-82
2022/05/18 04:12:26;;;;;;;4.00;2.10;;;;;;;6.12;63.01;97594.85;108042;1268;77742;-82
2022/05/18 04:14:58;;;;;;;4.90;2.40;;;;;;;6.31;62.88;97597.22;108101;1267;38697;-82
2022/05/18 04:17:29;;;;;;;4.60;2.30;;;;;;;6.48;62.61;97605.36;108113;1268;59161;-83
2022/05/18 04:20:00;;;;;;;5.50;2.30;;;;;;;6.65;62.15;97604.80;108132;1268;37992;-82
2022/05/18 04:22:31;;;;;;;3.80;2.40;;;;;;;6.84;61.29;97604.73;108153;1268;59619;-82
2022/05/18 04:25:04;;;;;;;6.00;1.90;;;;;;;7.02;60.81;97608.39;106955;1268;1644196;-82
2022/05/18 04:27:34;;;;;;;4.30;1.80;;;;;;;7.21;60.46;97607.48;108032;1268;54306;-82
2022/05/18 04:30:07;;;;;;;6.70;2.10;;;;;;;7.37;59.52;97605.39;108028;1267;106694;-82
2022/05/18 04:32:40;;;;;;;3.40;2.30;;;;;;;7.55;58.97;97608.98;108129;1268;37839;-82
2022/05/18 04:35:14;;;;;;;4.70;2.40;;;;;;;7.72;58.22;97611.68;108069;1268;51521;-83
2022/05/18 04:37:45;;;;;;;6.40;1.90;;;;;;;7.88;57.80;97616.27;107836;1268;57174;-83
2022/05/18 04:40:17;;;;;;;6.20;2.00;;;;;;;8.07;57.46;97619.02;107908;1268;54105;-83
2022/05/18 04:42:49;;;;;;;5.80;2.10;;;;;;;8.26;56.87;97620.73;107855;1268;74881;-83
2022/05/18 04:45:22;;;;;;;4.50;2.00;;;;;;;8.50;56.55;97622.42;107977;1268;43676;-83
2022/05/18 04:47:53;;;;;;;6.80;2.00;;;;;;;8.79;56.01;97621.63;107957;1266;40812;-83
2022/05/18 04:50:25;;;;;;;6.30;2.20;;;;;;;8.99;53.29;97621.21;107921;1268;69783;-83
2022/05/18 04:52:55;;;;;;;4.90;2.20;;;;;;;9.22;54.07;97622.81;108025;1265;49743;-83
2022/05/18 04:55:27;;;;;;;6.70;2.10;;;;;;;10.48;54.38;97618.69;108032;1268;76540;-83
2022/05/18 04:58:02;;;;;;;3.20;1.80;;;;;;;13.39;53.32;97616.20;108107;1268;49744;-83
2022/05/18 05:00:38;;;;;;;5.50;2.20;;;;;;;16.28;48.83;97614.00;108125;1268;44953;-83
2022/05/18 05:03:09;;;;;;;5.10;2.50;;;;;;;17.91;42.85;97617.65;108058;1268;47977;-83
2022/05/18 05:05:41;;;;;;;4.00;2.10;;;;;;;18.83;41.77;97622.42;108027;1268;79703;-83
2022/05/18 05:08:12;;;;;;;4.10;1.90;;;;;;;20.54;40.69;97619.30;108067;1268;62069;-83
2022/05/18 05:10:43;;;;;;;4.10;2.50;;;;;;;21.84;37.92;97620.06;107863;1268;86953;-83
2022/05/18 05:13:14;;;;;;;6.30;2.10;;;;;;;22.52;35.94;97626.34;108099;1268;32896;-81
2022/05/18 05:15:46;;;;;;;3.90;2.70;;;;;;;22.96;32.90;97624.67;108081;1268;55849;-84
2022/05/18 05:18:17;;;;;;;7.40;2.50;;;;;;;22.85;30.64;97626.52;108109;1268;37587;-84
2022/05/18 05:20:48;;;;;;;3.10;2.20;;;;;;;22.27;30.48;97630.67;108067;1268;53401;-85
2022/05/18 05:23:20;;;;;;;8.70;2.50;;;;;;;23.38;31.96;97635.23;108005;1268;93850;-84
2022/05/18 05:25:51;;;;;;;5.90;2.20;;;;;;;25.35;31.86;97633.02;108079;1268;56965;-84
2022/05/18 05:28:23;;;;;;;7.40;2.40;;;;;;;26.87;29.51;97640.40;108033;1266;48159;-84
2022/05/18 05:30:56;;;;;;;5.40;2.30;;;;;;;27.25;28.96;97640.11;108117;1268;45810;-85
2022/05/18 05:33:27;;;;;;;4.90;2.00;;;;;;;27.92;28.36;97645.22;108136;1268;38739;-85
2022/05/18 05:35:58;;;;;;;5.50;2.30;;;;;;;28.95;28.04;97643.24;108048;1266;37010;-85
2022/05/18 05:38:30;;;;;;;3.90;2.40;;;;;;;30.15;26.89;97645.65;107928;1268;45580;-84
2022/05/18 05:41:01;;;;;;;6.30;2.40;;;;;;;30.70;25.54;97650.20;107992;1268;44350;-84
2022/05/18 05:43:33;;;;;;;4.30;2.00;;;;;;;30.96;24.30;97654.91;107991;1268;32602;-85
2022/05/18 05:46:09;;;;;;;3.70;2.10;;;;;;;29.08;21.39;97665.18;108175;1265;37020;-81
2022/05/18 05:48:40;;;;;;;5.30;1.90;;;;;;;28.24;23.94;97667.33;107867;1268;45387;-85
2022/05/18 05:51:13;;;;;;;3.80;2.20;;;;;;;29.89;24.42;97671.38;108042;1268;32687;-82
2022/05/18 05:53:45;;;;;;;3.70;2.00;;;;;;;31.20;23.60;97669.92;108091;1268;51094;-83
2022/05/18 05:56:17;;;;;;;3.30;2.00;;;;;;;32.05;22.98;97673.14;108024;1265;86552;-85
2022/05/18 05:58:49;;;;;;;4.30;2.20;;;;;;;32.81;22.36;97671.33;108069;1268;51164;-85
2022/05/18 06:01:21;;;;;;;4.30;2.00;;;;;;;33.69;21.99;97671.99;108035;1268;64674;-85
2022/05/18 06:03:52;;;;;;;3.70;1.80;;;;;;;34.51;21.19;97676.86;108106;1268;49940;-85
2022/05/18 06:06:23;;;;;;;3.00;1.90;;;;;;;35.15;20.84;97678.52;107919;1268;60644;-85
2022/05/18 06:08:54;;;;;;;2.80;1.90;;;;;;;35.44;19.82;97679.88;107944;1268;34536;-85
2022/05/18 06:11:27;;;;;;;2.80;1.80;;;;;;;35.67;19.50;97682.59;108027;1268;65114;-85
2022/05/18 06:13:58;;;;;;;2.40;1.70;;;;;;;34.44;18.64;97686.05;108081;1268;49457;-85
2022/05/18 06:16:29;;;;;;;4.30;1.80;;;;;;;34.10;18.72;97682.60;108097;1268;48348;-85
2022/05/18 06:19:01;;;;;;;5.60;1.70;;;;;;;33.09;18.15;97690.73;108139;1268;39890;-85
2022/05/18 06:21:32;;;;;;;3.40;2.00;;;;;;;33.06;18.83;97691.39;108138;1266;95964;-86
2022/05/18 06:24:03;;;;;;;6.50;1.90;;;;;;;34.13;19.02;97689.73;108136;1266;46384;-85
2022/05/18 06:26:34;;;;;;;4.70;2.10;;;;;;;34.62;18.29;97694.37;108115;1268;45854;-81
2022/05/18 06:29:05;;;;;;;2.90;1.70;;;;;;;35.70;18.55;97696.16;107900;1268;49394;-85
2022/05/18 06:31:36;;;;;;;5.30;1.70;;;;;;;35.39;16.04;97701.77;107890;1268;63346;-84
2022/05/18 06:34:08;;;;;;;3.10;1.70;;;;;;;33.93;16.90;97704.70;107948;1268;33730;-85
2022/05/18 06:36:40;;;;;;;5.20;1.50;;;;;;;32.75;16.51;97706.95;108078;1267;65527;-85
2022/05/18 06:39:11;;;;;;;3.40;1.40;;;;;;;33.22;17.82;97705.48;108152;1268;48760;-85
2022/05/18 06:41:42;;;;;;;2.40;1.30;;;;;;;35.12;17.32;97707.46;108055;1268;58423;-86
2022/05/18 06:44:14;;;;;;;1.60;0.90;;;;;;;35.39;15.57;97715.91;108105;1268;43563;-85
2022/05/18 06:46:47;;;;;;;4.20;1.20;;;;;;;34.26;16.17;97719.66;108115;1268;61193;-85
2022/05/18 06:49:18;;;;;;;2.30;1.00;;;;;;;34.19;15.81;97726.23;108131;1268;49884;-86
2022/05/18 06:51:49;;;;;;;2.30;1.20;;;;;;;33.93;14.68;97732.02;108134;1268;38173;-85
2022/05/18 06:54:20;;;;;;;2.70;1.10;;;;;;;32.81;15.66;97736.93;108158;1268;44937;-86
2022/05/18 06:56:51;;;;;;;3.00;1.30;;;;;;;32.11;14.47;97745.44;108112;1268;76486;-85
2022/05/18 06:59:22;;;;;;;2.50;1.60;;;;;;;29.91;15.38;97747.77;108152;1268;67156;-85
2022/05/18 07:01:53;;;;;;;2.50;1.10;;;;;;;28.95;16.52;97755.89;108214;1265;35466;-86
2022/05/18 07:04:24;;;;;;;2.10;1.30;;;;;;;28.45;16.83;97761.96;108099;1268;81741;-85
2022/05/18 07:06:56;;;;;;;5.50;1.40;;;;;;;28.60;17.76;97761.42;108107;1268;58127;-86
2022/05/18 07:09:28;;;;;;;1.20;1.10;;;;;;;29.07;16.81;97765.97;108182;1268;33362;-86
2022/05/18 07:11:59;;;;;;;1.90;1.00;;;;;;;30.06;16.95;97762.87;108284;1267;31126;-86
2022/05/18 07:14:33;;;;;;;3.10;1.10;;;;;;;30.12;15.54;97766.43;108234;1268;32695;-86
2022/05/18 07:17:04;;;;;;;2.80;0.90;;;;;;;30.47;17.59;97763.70;108252;1267;79536;-86
2022/05/18 07:19:35;;;;;;;3.90;1.40;;;;;;;32.48;16.77;97770.25;108052;1265;87056;-84
2022/05/18 07:22:06;;;;;;;3.70;1.10;;;;;;;33.96;16.87;97774.69;108293;1268;33781;-85
2022/05/18 07:24:37;;;;;;;3.20;0.90;;;;;;;35.11;15.63;97772.45;108109;1268;75404;-86
2022/05/18 07:27:08;;;;;;;3.70;1.10;;;;;;;35.84;14.63;97771.67;108220;1268;69032;-86
2022/05/18 07:29:39;;;;;;;2.90;0.90;;;;;;;36.30;14.41;97777.97;108115;1268;123410;-86
2022/05/18 07:32:12;;;;;;;2.70;0.80;;;;;;;36.80;13.89;97781.84;108251;1267;51887;-86
2022/05/18 07:34:45;;;;;;;2.60;0.80;;;;;;;35.61;12.93;97779.14;108172;1268;80306;-86
2022/05/18 07:37:18;;;;;;;1.20;0.80;;;;;;;35.18;12.97;97780.33;108344;1268;32576;-87
2022/05/18 07:39:49;;;;;;;2.40;1.00;;;;;;;34.60;14.08;97776.94;108282;1268;32838;-86
2022/05/18 07:42:21;;;;;;;4.00;1.20;;;;;;;35.84;13.55;97777.65;108159;1268;75179;-86
2022/05/18 07:44:52;;;;;;;4.00;1.20;;;;;;;34.52;12.03;97781.67;108173;1268;54190;-86
2022/05/18 07:47:30;;;;;;;2.00;1.10;;;;;;;34.26;13.54;97778.66;108212;1268;60012;-86
2022/05/18 07:50:01;;;;;;;3.10;1.30;;;;;;;35.08;13.42;97783.14;108255;1268;64195;-87
2022/05/18 07:52:32;;;;;;;2.70;1.10;;;;;;;35.67;12.43;97789.17;108044;1268;298980;-84
2022/05/18 07:55:03;;;;;;;1.30;0.90;;;;;;;34.48;12.29;97788.26;108164;1266;68145;-85
2022/05/18 07:57:34;;;;;;;4.10;1.30;;;;;;;31.76;12.67;97791.67;108210;1268;34308;-84
2022/05/18 08:00:08;;;;;;;3.00;1.20;;;;;;;29.47;13.75;97797.34;108097;1265;55851;-81
2022/05/18 08:02:39;;;;;;;2.00;1.00;;;;;;;29.21;14.65;97802.18;108199;1265;35718;-84
2022/05/18 08:05:10;;;;;;;2.30;1.40;;;;;;;30.77;15.54;97799.95;108065;1268;81891;-83
2022/05/18 08:07:45;;;;;;;2.20;1.30;;;;;;;31.99;14.98;97798.06;108142;1265;71974;-83
2022/05/18 08:15:56;;;;;;;1.80;1.00;;;;;;;36.11;13.92;97796.66;107976;1265;116165;-84
2022/05/18 08:18:27;;;;;;;3.00;1.40;;;;;;;36.68;13.49;97801.39;107717;1268;72740;-84
2022/05/18 08:20:58;;;;;;;3.60;1.50;;;;;;;37.03;13.15;97807.55;107810;1268;134929;-84
2022/05/18 08:23:29;;;;;;;2.40;1.30;;;;;;;37.15;13.12;97809.05;108007;1268;33490;-84
2022/05/18 08:26:01;;;;;;;3.50;1.60;;;;;;;37.82;13.18;97813.98;107951;1268;96564;-84
2022/05/18 08:28:33;;;;;;;1.80;1.40;;;;;;;37.84;12.03;97817.89;108033;1268;53354;-84
2022/05/18 08:31:04;;;;;;;2.70;1.50;;;;;;;36.65;12.11;97815.09;107972;1268;78492;-84
2022/05/18 08:33:35;;;;;;;2.80;1.50;;;;;;;34.28;12.02;97822.54;108020;1267;46705;-81
2022/05/18 08:36:09;;;;;;;2.90;1.30;;;;;;;34.14;13.31;97824.27;107924;1268;53214;-85
2022/05/18 08:38:40;;;;;;;1.60;1.40;;;;;;;35.09;13.28;97827.06;108164;1265;63864;-85
2022/05/18 08:41:14;;;;;;;2.30;1.30;;;;;;;36.01;13.11;97821.02;108171;1267;103657;-85
2022/05/18 08:43:50;;;;;;;2.70;1.40;;;;;;;36.67;12.86;97817.84;108017;1265;97925;-86
2022/05/18 08:46:30;;;;;;;4.70;1.40;;;;;;;36.04;11.57;97815.06;108174;1266;74127;-85
2022/05/18 08:49:06;;;;;;;2.20;1.20;;;;;;;32.96;12.34;97820.71;108147;1268;65294;-85
2022/05/18 08:51:49;;;;;;;2.60;1.00;;;;;;;32.09;13.69;97819.35;108169;1265;32690;-85
2022/05/18 08:54:40;;;;;;;3.10;1.20;;;;;;;31.76;13.45;97816.92;108220;1265;45776;-85
2022/05/18 08:57:20;;;;;;;3.40;1.00;;;;;;;30.46;13.46;97821.13;108114;1268;59096;-84
2022/05/18 08:59:56;;;;;;;2.80;0.80;;;;;;;30.31;13.85;97820.72;108132;1268;61663;-85
2022/05/18 09:02:33;;;;;;;0.80;0.60;;;;;;;28.99;13.98;97821.86;106948;1268;1299586;-84
2022/05/18 09:05:09;;;;;;;4.20;1.50;;;;;;;25.89;15.71;97821.77;108172;1268;44745;-84
2022/05/18 09:07:44;;;;;;;4.30;1.30;;;;;;;23.61;18.34;97832.14;107896;1268;59415;-84
2022/05/18 09:10:27;;;;;;;2.30;1.30;;;;;;;22.84;19.79;97826.27;108061;1268;48584;-84
2022/05/18 09:12:58;;;;;;;3.70;1.60;;;;;;;22.50;19.89;97823.79;107763;1268;89720;-83
2022/05/18 09:15:39;;;;;;;2.00;1.10;;;;;;;21.94;20.79;97823.95;107768;1268;79408;-84
2022/05/18 09:18:19;;;;;;;2.80;1.30;;;;;;;21.24;21.64;97821.77;107853;1265;142673;-84
2022/05/18 09:20:56;;;;;;;1.90;1.30;;;;;;;21.16;22.49;97825.91;108019;1265;60314;-84
2022/05/18 09:23:49;;;;;;;6.90;1.70;;;;;;;20.90;22.59;97826.15;108192;1268;53445;-84
2022/05/18 09:26:36;;;;;;;2.70;1.40;;;;;;;20.90;23.75;97829.55;108040;1266;34260;-84
2022/05/18 09:29:16;;;;;;;5.20;1.60;;;;;;;20.70;22.98;97829.61;107911;1268;51525;-83
2022/05/18 09:31:53;;;;;;;;;;;;;;;20.43;24.30;97831.90;107934;1267;87124;-84
2022/05/18 09:34:37;;;;;;;2.90;1.40;;;;;;;20.25;24.77;97831.80;107850;1268;104878;-83
2022/05/18 09:37:26;;;;;;;4.10;1.80;;;;;;;20.21;24.92;97833.46;107814;1267;106141;-82
2022/05/18 09:40:06;;;;;;;2.90;1.70;;;;;;;19.59;24.23;97834.53;107824;1267;101462;-83
2022/05/18 09:42:41;;;;;;;2.20;1.50;;;;;;;18.18;25.62;97834.20;108061;1265;110447;-83
2022/05/18 09:45:15;;;;;;;3.00;1.40;;;;;;;16.64;26.54;97836.54;107992;1265;60031;-84
2022/05/18 09:47:51;;;;;;;2.50;1.20;;;;;;;15.90;28.06;97837.90;107885;1268;105809;-83
2022/05/18 09:50:22;;;;;;;3.70;1.60;;;;;;;15.78;28.84;97841.80;107907;1268;116103;-83
2022/05/18 09:52:55;;;;;;;7.00;1.60;;;;;;;16.03;29.67;97836.00;107958;1268;105707;-82
2022/05/18 09:55:28;;;;;;;2.70;1.20;;;;;;;16.79;29.29;97835.63;107943;1267;142370;-83
2022/05/18 09:58:04;;;;;;;4.00;1.20;;;;;;;17.29;28.14;97829.95;108212;1268;33470;-82
2022/05/18 10:00:38;;;;;;;3.80;1.50;;;;;;;17.61;28.61;97832.45;108064;1268;81734;-79
2022/05/18 10:09:16;;;;;;;2.40;1.00;;;;;;;17.85;27.42;97827.95;107955;1267;64546;-78
2022/05/18 10:11:48;;;;;;;2.20;1.20;;;;;;;17.36;26.66;97827.99;107857;1268;91861;-82
2022/05/18 10:14:29;;;;;;;1.80;1.20;;;;;;;16.70;26.65;97828.02;107801;1267;97259;-83
2022/05/18 10:17:06;;;;;;;4.80;1.10;;;;;;;16.06;27.10;97831.58;107991;1267;75583;-82
2022/05/18 10:19:46;;;;;;;1.50;1.00;;;;;;;15.88;27.68;97828.55;108019;1268;65758;-82
2022/05/18 10:22:25;;;;;;;4.60;1.10;;;;;;;15.84;28.14;97829.50;108008;1265;73727;-82
2022/05/18 10:25:08;;;;;;;4.80;1.50;;;;;;;15.94;28.76;97828.55;108026;1268;67849;-82
2022/05/18 10:27:41;;;;;;;2.70;1.20;;;;;;;16.18;28.92;97825.05;108032;1268;52795;-82
2022/05/18 10:30:19;;;;;;;2.50;1.30;;;;;;;15.91;28.47;97828.95;107975;1267;98153;-83
2022/05/18 10:33:02;;;;;;;4.30;1.20;;;;;;;15.24;29.95;97826.05;106768;1268;1762162;-82
2022/05/18 10:35:51;;;;;;;4.50;1.10;;;;;;;15.45;30.42;97828.37;106841;1267;1685387;-82
2022/05/18 10:38:26;;;;;;;3.10;1.00;;;;;;;15.83;29.49;97821.77;107932;1267;43829;-82
2022/05/18 10:41:12;;;;;;;3.30;1.20;;;;;;;15.99;29.96;97820.69;107984;1267;32881;-82
2022/05/18 10:43:47;;;;;;;1.80;0.90;;;;;;;16.53;29.68;97817.90;106558;1267;1941589;-82
2022/05/18 10:46:28;;;;;;;2.40;1.00;;;;;;;16.90;28.52;97814.83;107944;1268;81621;-82
2022/05/18 10:49:01;;;;;;;1.60;1.00;;;;;;;17.00;27.95;97810.87;108181;1266;45198;-82
2022/05/18 10:51:42;;;;;;;2.40;1.40;;;;;;;17.01;28.17;97814.50;108167;1267;34805;-82
2022/05/18 10:54:19;;;;;;;2.90;1.20;;;;;;;17.15;28.50;97804.85;108003;1267;92962;-82
2022/05/18 10:56:52;;;;;;;1.90;1.00;;;;;;;17.10;28.23;97801.83;107869;1266;94836;-82
2022/05/18 10:59:43;;;;;;;2.70;1.40;;;;;;;16.92;28.29;97806.42;107933;1267;117436;-83
2022/05/18 11:02:21;;;;;;;1.80;1.20;;;;;;;16.75;27.09;97807.51;107815;1267;78118;-82
2022/05/18 11:04:57;;;;;;;1.80;1.00;;;;;;;16.29;27.94;97800.78;108070;1268;55133;-82
2022/05/18 11:07:31;;;;;;;2.60;1.30;;;;;;;16.39;29.10;97803.67;108118;1268;35645;-82
2022/05/18 11:10:02;;;;;;;1.90;1.00;;;;;;;16.76;29.14;97801.77;108118;1268;76827;-82
2022/05/18 11:12:43;;;;;;;2.60;1.30;;;;;;;17.10;28.92;97796.63;108053;1268;87026;-82
2022/05/18 11:15:19;;;;;;;2.30;1.10;;;;;;;17.25;28.12;97795.38;107931;1267;140973;-82
2022/05/18 11:18:04;;;;;;;2.10;1.30;;;;;;;17.24;28.40;97797.33;107803;1267;143397;-83
2022/05/18 11:20:46;;;;;;;2.80;0.90;;;;;;;16.82;28.33;97797.57;108033;1268;34196;-80
2022/05/18 11:23:28;;;;;;;2.30;1.00;;;;;;;16.97;28.20;97797.42;106487;1268;2136694;-82
2022/05/18 11:26:11;;;;;;;1.80;1.20;;;;;;;16.72;27.65;97796.61;107968;1267;88923;-83
2022/05/18 11:28:53;;;;;;;2.40;1.20;;;;;;;16.22;27.94;97797.01;108064;1268;37094;-82
2022/05/18 11:31:51;;;;;;;1.80;1.10;;;;;;;16.08;28.91;97792.23;107863;1267;125958;-83
2022/05/18 11:34:30;;;;;;;4.20;1.30;;;;;;;15.99;29.46;97790.14;107945;1268;38137;-82
2022/05/18 11:37:15;;;;;;;1.80;1.00;;;;;;;15.96;29.78;97787.89;107857;1267;134897;-82
2022/05/18 11:40:00;;;;;;;3.10;1.40;;;;;;;15.94;30.63;97785.55;107904;1268;77967;-82
2022/05/18 11:42:41;;;;;;;2.90;1.50;;;;;;;16.17;30.98;97784.70;107985;1268;33482;-82
2022/05/18 11:45:23;;;;;;;3.90;1.60;;;;;;;16.44;31.28;97783.20;108237;1265;49680;-82
2022/05/18 11:48:10;;;;;;;1.60;1.40;;;;;;;16.66;30.32;97784.91;107914;1268;81548;-83
2022/05/18 11:50:54;;;;;;;3.10;1.70;;;;;;;16.20;30.21;97780.86;107718;1267;119943;-82
2022/05/18 11:53:36;;;;;;;1.40;0.90;;;;;;;15.97;31.31;97782.94;108014;1265;107844;-82
2022/05/18 11:56:26;;;;;;;2.60;1.30;;;;;;;15.96;30.01;97782.75;107893;1265;109345;-82
2022/05/18 11:59:29;;;;;;;1.80;1.00;;;;;;;15.79;29.93;97781.80;108029;1266;84555;-82
2022/05/18 12:02:16;;;;;;;3.60;1.00;;;;;;;15.78;31.13;97785.91;108201;1264;80392;-82
2022/05/18 12:05:13;;;;;;;2.40;0.80;;;;;;;16.20;30.39;97784.41;108149;1264;36974;-81
2022/05/18 12:08:24;;;;;;;5.30;1.10;;;;;;;16.30;29.13;97781.02;108141;1265;59062;-82
2022/05/18 12:11:02;;;;;;;1.50;1.00;;;;;;;16.18;29.20;97786.73;107962;1265;109397;-82
2022/05/18 12:13:47;;;;;;;2.60;1.00;;;;;;;15.98;28.83;97786.25;108214;1268;64514;-82